createdAt,value
2023-03-28T00:02:20.595Z,2.30
2023-03-28T00:04:49.761Z,1.10
2023-03-28T00:07:17.146Z,0.93
2023-03-28T00:09:44.506Z,2.57
2023-03-28T00:12:11.870Z,3.63
2023-03-28T00:14:40.643Z,0.37
2023-03-28T00:17:08.405Z,3.87
2023-03-28T00:19:40.465Z,0.67
2023-03-28T00:22:08.479Z,0.20
2023-03-28T00:24:39.046Z,4.27
2023-03-28T00:27:07.215Z,2.70
2023-03-28T00:29:35.104Z,1.70
2023-03-28T00:32:03.777Z,0.70
2023-03-28T00:34:31.181Z,1.27
2023-03-28T00:36:58.553Z,0.20
2023-03-28T00:39:27.731Z,1.53
2023-03-28T00:41:55.739Z,1.17
2023-03-28T00:44:42.445Z,3.20
2023-03-28T00:47:15.295Z,3.80
2023-03-28T00:49:43.090Z,3.63
2023-03-28T00:52:14.013Z,1.43
2023-03-28T00:54:41.614Z,1.47
2023-03-28T00:57:10.049Z,0.20
2023-03-28T00:59:38.375Z,1.50
2023-03-28T01:02:07.170Z,0.30
2023-03-28T01:04:38.680Z,2.97
2023-03-28T01:07:06.864Z,4.40
2023-03-28T01:09:37.748Z,0.40
2023-03-28T01:12:06.044Z,0.70
2023-03-28T01:14:33.847Z,3.00
2023-03-28T01:17:03.659Z,3.73
2023-03-28T01:19:42.641Z,1.97
2023-03-28T01:22:22.634Z,0.10
2023-03-28T01:25:09.087Z,7.43
2023-03-28T01:27:41.163Z,4.03
2023-03-28T01:30:24.689Z,1.63
2023-03-28T01:33:28.728Z,0.73
2023-03-28T01:36:06.140Z,3.40
2023-03-28T01:38:38.186Z,0.80
2023-03-28T01:41:09.585Z,1.13
2023-03-28T01:43:47.447Z,2.93
2023-03-28T01:46:16.636Z,3.53
2023-03-28T01:48:51.324Z,2.60
2023-03-28T01:51:23.979Z,0.33
2023-03-28T01:53:57.460Z,0.80
2023-03-28T01:56:30.604Z,2.50
2023-03-28T01:59:03.890Z,4.27
2023-03-28T02:01:54.829Z,3.10
2023-03-28T02:04:23.997Z,3.53
2023-03-28T02:06:58.352Z,5.80
2023-03-28T02:09:32.401Z,1.67
2023-03-28T02:12:26.780Z,2.63
2023-03-28T02:15:06.854Z,2.03
2023-03-28T02:18:05.123Z,4.07
2023-03-28T02:20:45.890Z,3.10
2023-03-28T02:23:40.280Z,1.40
2023-03-28T02:26:28.164Z,1.77
2023-03-28T02:29:08.794Z,0.80
2023-03-28T02:31:50.651Z,0.73
2023-03-28T02:34:19.008Z,2.53
2023-03-28T02:36:49.319Z,2.17
2023-03-28T02:39:25.308Z,2.13
2023-03-28T02:42:03.387Z,3.20
2023-03-28T02:44:39.890Z,2.23
2023-03-28T02:47:12.473Z,0.83
2023-03-28T02:49:50.528Z,3.90
2023-03-28T02:52:23.596Z,2.33
2023-03-28T02:54:53.786Z,3.73
2023-03-28T02:57:33.103Z,3.13
2023-03-28T03:00:12.571Z,4.27
2023-03-28T03:02:41.022Z,3.33
2023-03-28T03:05:09.646Z,6.10
2023-03-28T03:07:38.028Z,2.43
2023-03-28T03:10:06.802Z,4.90
2023-03-28T03:12:36.007Z,9.20
2023-03-28T03:15:05.430Z,7.73
2023-03-28T03:17:51.534Z,7.77
2023-03-28T03:20:26.026Z,2.43
2023-03-28T03:22:53.587Z,4.43
2023-03-28T03:25:20.920Z,8.57
2023-03-28T03:27:57.405Z,1.67
2023-03-28T03:30:24.769Z,3.37
2023-03-28T03:33:11.278Z,3.00
2023-03-28T03:35:45.716Z,4.80
2023-03-28T03:38:14.134Z,4.13
2023-03-28T03:40:41.749Z,3.03
2023-03-28T03:43:12.476Z,5.07
2023-03-28T03:45:41.386Z,3.97
2023-03-28T03:48:10.052Z,1.73
2023-03-28T03:50:38.483Z,0.57
2023-03-28T03:53:12.500Z,0.40
2023-03-28T03:55:48.087Z,0.00
2023-03-28T03:58:18.675Z,0.10
2023-03-28T04:00:48.971Z,0.30
2023-03-28T04:03:32.006Z,0.10
2023-03-28T04:05:59.901Z,6.60
2023-03-28T04:08:27.486Z,0.10
2023-03-28T04:10:55.679Z,0.10
2023-03-28T04:13:24.724Z,0.07
2023-03-28T04:15:57.713Z,0.23
2023-03-28T04:18:34.071Z,0.63
2023-03-28T04:21:02.229Z,0.40
2023-03-28T04:23:43.469Z,0.30
2023-03-28T04:26:26.840Z,2.63
2023-03-28T04:29:05.849Z,2.23
2023-03-28T04:31:39.083Z,0.30
2023-03-28T04:34:30.104Z,0.70
2023-03-28T04:37:06.840Z,0.43
2023-03-28T04:39:44.571Z,2.00
2023-03-28T04:42:31.917Z,6.13
2023-03-28T04:45:19.625Z,0.33
2023-03-28T04:47:49.254Z,0.87
2023-03-28T04:50:18.839Z,3.53
2023-03-28T04:52:46.323Z,2.03
2023-03-28T04:55:16.990Z,2.87
2023-03-28T04:57:47.443Z,3.10
2023-03-28T05:00:16.888Z,1.00
2023-03-28T05:03:05.523Z,3.10
2023-03-28T05:05:39.121Z,2.97
2023-03-28T05:08:10.251Z,4.63
2023-03-28T05:10:37.769Z,2.83
2023-03-28T05:13:07.597Z,3.37
2023-03-28T05:15:42.940Z,5.87
2023-03-28T05:18:41.222Z,2.70
2023-03-28T05:21:08.739Z,1.57
2023-03-28T05:23:36.177Z,1.47
2023-03-28T05:26:10.815Z,4.27
2023-03-28T05:28:39.278Z,3.13
2023-03-28T05:31:08.562Z,2.03
2023-03-28T05:33:36.234Z,1.73
2023-03-28T05:36:06.411Z,2.60
2023-03-28T05:38:34.293Z,2.30
2023-03-28T05:41:08.461Z,1.93
2023-03-28T05:43:35.825Z,5.57
2023-03-28T05:46:03.573Z,4.93
2023-03-28T05:48:39.017Z,2.17
2023-03-28T05:51:08.601Z,2.17
2023-03-28T05:53:36.072Z,3.37
2023-03-28T05:56:03.457Z,4.97
2023-03-28T05:58:31.688Z,2.37
2023-03-28T06:01:00.377Z,3.67
2023-03-28T06:03:31.536Z,3.97
2023-03-28T06:06:05.493Z,4.00
2023-03-28T06:08:34.246Z,3.80
2023-03-28T06:11:02.374Z,3.77
2023-03-28T06:13:34.268Z,3.70
2023-03-28T06:16:02.921Z,2.70
2023-03-28T06:18:36.033Z,2.43
2023-03-28T06:21:04.307Z,4.17
2023-03-28T06:23:32.506Z,1.63
2023-03-28T06:26:02.433Z,1.60
2023-03-28T06:28:37.318Z,3.90
2023-03-28T06:31:19.706Z,2.13
2023-03-28T06:33:47.371Z,2.13
2023-03-28T06:36:14.834Z,2.47
2023-03-28T06:38:43.457Z,4.87
2023-03-28T06:41:13.391Z,3.07
2023-03-28T06:43:44.193Z,3.63
2023-03-28T06:46:31.532Z,3.00
2023-03-28T06:49:00.788Z,2.40
2023-03-28T06:51:28.234Z,5.47
2023-03-28T06:53:55.789Z,7.07
2023-03-28T06:56:28.676Z,4.60
2023-03-28T06:58:57.919Z,3.70
2023-03-28T07:01:27.716Z,4.80
2023-03-28T07:04:06.768Z,1.93
2023-03-28T07:06:35.801Z,2.87
2023-03-28T07:09:05.949Z,1.87
2023-03-28T07:11:45.762Z,4.03
2023-03-28T07:14:13.507Z,1.23
2023-03-28T07:16:41.057Z,1.77
2023-03-28T07:19:10.851Z,6.50
2023-03-28T07:21:41.914Z,9.03
2023-03-28T07:24:09.324Z,3.70
2023-03-28T07:26:48.994Z,3.57
2023-03-28T07:29:16.356Z,1.87
2023-03-28T07:31:43.945Z,1.90
2023-03-28T07:34:11.482Z,3.17
2023-03-28T07:36:39.658Z,3.57
2023-03-28T07:39:14.470Z,1.70
2023-03-28T07:41:41.879Z,3.23
2023-03-28T07:44:10.978Z,3.00
2023-03-28T07:46:38.861Z,3.10
2023-03-28T07:49:06.872Z,3.17
2023-03-28T07:51:35.539Z,4.47
2023-03-28T07:54:04.782Z,6.80
2023-03-28T07:56:32.310Z,2.07
2023-03-28T07:59:17.107Z,4.23
2023-03-28T08:01:47.793Z,2.53
2023-03-28T08:04:15.487Z,2.20
2023-03-28T08:07:02.258Z,3.47
2023-03-28T08:09:29.614Z,2.43
2023-03-28T08:12:12.961Z,4.43
2023-03-28T08:14:41.631Z,2.77
2023-03-28T08:17:09.537Z,2.47
2023-03-28T08:19:37.544Z,1.60
2023-03-28T08:22:13.783Z,1.57
2023-03-28T08:24:48.086Z,1.10
2023-03-28T08:27:20.984Z,1.67
2023-03-28T08:29:52.801Z,1.73
2023-03-28T08:32:20.322Z,1.80
2023-03-28T08:34:48.278Z,1.60
2023-03-28T08:37:18.439Z,1.50
2023-03-28T08:39:48.655Z,3.60
2023-03-28T08:42:26.895Z,2.50
2023-03-28T08:45:09.641Z,1.17
2023-03-28T08:47:39.448Z,0.87
2023-03-28T08:50:14.296Z,1.17
2023-03-28T08:52:42.646Z,1.70
2023-03-28T08:55:18.764Z,0.73
2023-03-28T08:57:46.437Z,0.13
2023-03-28T09:00:17.154Z,0.60
2023-03-28T09:02:44.702Z,2.23
2023-03-28T09:07:54.675Z,0.60
2023-03-28T09:10:25.365Z,2.40
2023-03-28T09:13:07.704Z,1.40
2023-03-28T09:15:41.320Z,0.80
2023-03-28T09:18:18.279Z,0.47
2023-03-28T09:20:49.765Z,0.87
2023-03-28T09:23:46.151Z,1.10
2023-03-28T09:26:36.957Z,0.33
2023-03-28T09:29:11.373Z,0.97
2023-03-28T09:31:41.853Z,0.60
2023-03-28T09:34:13.579Z,1.53
2023-03-28T09:36:49.670Z,0.63
2023-03-28T09:39:22.910Z,1.27
2023-03-28T09:41:53.270Z,3.53
2023-03-28T09:44:53.515Z,0.70
2023-03-28T09:47:46.574Z,0.70
2023-03-28T09:50:16.839Z,1.60
2023-03-28T09:52:49.531Z,1.23
2023-03-28T09:55:19.288Z,0.60
2023-03-28T09:58:00.195Z,1.23
2023-03-28T10:00:28.390Z,4.87
2023-03-28T10:03:29.055Z,0.50
2023-03-28T10:05:58.057Z,1.93
2023-03-28T10:08:36.842Z,0.77
2023-03-28T10:11:27.388Z,2.10
2023-03-28T10:13:56.352Z,2.70
2023-03-28T10:16:27.395Z,0.50
2023-03-28T10:19:21.791Z,1.37
2023-03-28T10:22:05.097Z,0.77
2023-03-28T10:24:35.261Z,0.70
2023-03-28T10:27:07.558Z,0.67
2023-03-28T10:29:37.019Z,0.70
2023-03-28T10:32:05.972Z,2.77
2023-03-28T10:34:58.494Z,0.47
2023-03-28T10:37:34.154Z,0.83
2023-03-28T10:40:27.976Z,0.93
2023-03-28T10:43:15.029Z,0.23
2023-03-28T10:46:02.036Z,1.53
2023-03-28T10:48:41.941Z,1.40
2023-03-28T10:51:17.917Z,0.57
2023-03-28T10:53:52.805Z,0.50
2023-03-28T10:56:27.292Z,2.47
2023-03-28T10:59:01.528Z,1.10
2023-03-28T11:01:35.676Z,0.63
2023-03-28T11:04:16.071Z,4.13
2023-03-28T11:06:47.930Z,1.13
2023-03-28T11:09:21.106Z,0.30
2023-03-28T11:12:19.852Z,8.43
2023-03-28T11:15:00.499Z,0.47
2023-03-28T11:17:37.623Z,3.17
2023-03-28T11:20:26.704Z,1.43
2023-03-28T11:23:06.826Z,0.70
2023-03-28T11:26:00.547Z,0.87
2023-03-28T11:29:06.059Z,2.67
2023-03-28T11:31:36.017Z,1.53
2023-03-28T11:34:05.969Z,0.90
2023-03-28T11:36:36.893Z,2.30
2023-03-28T11:39:11.320Z,1.43
2023-03-28T11:41:40.509Z,2.50
2023-03-28T11:44:15.140Z,0.40
2023-03-28T11:46:44.009Z,0.47
2023-03-28T11:49:17.803Z,0.47
2023-03-28T11:51:47.444Z,1.57
2023-03-28T11:54:21.355Z,1.47
2023-03-28T11:56:53.112Z,2.43
2023-03-28T11:59:42.987Z,0.97
2023-03-28T12:02:15.942Z,2.63
2023-03-28T12:04:45.953Z,2.80
2023-03-28T12:07:17.028Z,2.17
2023-03-28T12:09:55.451Z,1.93
2023-03-28T12:12:25.111Z,1.13
2023-03-28T12:14:54.467Z,2.13
2023-03-28T12:17:39.730Z,1.27
2023-03-28T12:20:11.943Z,1.97
2023-03-28T12:22:42.100Z,1.17
2023-03-28T12:25:20.944Z,1.43
2023-03-28T12:27:56.385Z,1.13
2023-03-28T12:30:32.402Z,3.03
2023-03-28T12:33:05.208Z,1.40
2023-03-28T12:35:42.797Z,0.53
2023-03-28T12:38:17.028Z,1.00
2023-03-28T12:40:53.301Z,1.77
2023-03-28T12:43:25.539Z,1.73
2023-03-28T12:45:57.215Z,1.07
2023-03-28T12:48:30.360Z,1.20
2023-03-28T12:50:59.727Z,1.33
2023-03-28T12:53:27.457Z,2.87
2023-03-28T12:55:56.126Z,2.60
2023-03-28T12:58:26.598Z,2.67
2023-03-28T13:01:26.155Z,1.13
2023-03-28T13:04:29.506Z,2.07
2023-03-28T13:07:11.293Z,2.77
2023-03-28T13:09:46.952Z,3.70
2023-03-28T13:12:24.102Z,1.20
2023-03-28T13:14:58.585Z,3.10
2023-03-28T13:17:27.964Z,3.80
2023-03-28T13:19:56.799Z,4.20
2023-03-28T13:22:29.663Z,1.43
2023-03-28T13:25:20.882Z,2.63
2023-03-28T13:27:50.164Z,4.20
2023-03-28T13:30:18.545Z,1.90
2023-03-28T13:32:47.002Z,4.10
2023-03-28T13:35:29.256Z,4.33
2023-03-28T13:37:56.595Z,2.60
2023-03-28T13:40:45.983Z,2.77
2023-03-28T13:43:27.913Z,10.40
2023-03-28T13:45:57.492Z,2.77
2023-03-28T13:48:27.307Z,2.17
2023-03-28T13:50:54.697Z,6.00
2023-03-28T13:53:22.075Z,2.03
2023-03-28T13:56:06.635Z,2.37
2023-03-28T13:58:36.779Z,2.23
2023-03-28T14:01:08.002Z,3.00
2023-03-28T14:03:36.914Z,3.03
2023-03-28T14:06:12.773Z,1.50
2023-03-28T14:08:45.769Z,3.63
2023-03-28T14:11:13.659Z,1.73
2023-03-28T14:13:42.478Z,3.10
2023-03-28T14:16:10.466Z,4.77
2023-03-28T14:18:40.892Z,2.73
2023-03-28T14:21:08.386Z,2.50
2023-03-28T14:23:36.672Z,1.93
2023-03-28T14:26:07.160Z,4.73
2023-03-28T14:28:34.871Z,2.93
2023-03-28T14:31:03.917Z,3.50
2023-03-28T14:33:34.148Z,2.20
2023-03-28T14:36:04.021Z,5.27
2023-03-28T14:38:33.137Z,5.13
2023-03-28T14:41:07.751Z,1.93
2023-03-28T14:43:35.615Z,2.80
2023-03-28T14:46:06.624Z,6.30
2023-03-28T14:48:34.584Z,2.70
2023-03-28T14:51:03.920Z,1.43
2023-03-28T14:53:35.529Z,2.80
2023-03-28T14:56:06.587Z,3.20
2023-03-28T14:58:35.133Z,1.80
2023-03-28T15:01:04.639Z,0.87
2023-03-28T15:03:33.349Z,2.30
2023-03-28T15:06:01.108Z,2.30
2023-03-28T15:08:31.580Z,3.30
2023-03-28T15:11:03.390Z,4.50
2023-03-28T15:13:34.006Z,1.70
2023-03-28T15:16:04.812Z,7.23
2023-03-28T15:18:38.419Z,1.67
2023-03-28T15:21:08.115Z,1.53
2023-03-28T15:23:39.569Z,3.57
2023-03-28T15:26:09.651Z,2.70
2023-03-28T15:28:37.379Z,1.57
2023-03-28T15:31:05.013Z,4.53
2023-03-28T15:33:35.411Z,2.27
2023-03-28T15:36:06.784Z,3.47
2023-03-28T15:38:37.894Z,5.53
2023-03-28T15:41:10.631Z,5.30
2023-03-28T15:43:39.513Z,5.20
2023-03-28T15:46:10.572Z,2.10
2023-03-28T15:48:40.179Z,4.17
2023-03-28T15:51:08.988Z,2.90
2023-03-28T15:53:38.493Z,3.43
2023-03-28T15:56:08.715Z,3.00
2023-03-28T15:58:41.109Z,3.70
2023-03-28T16:01:19.917Z,2.97
2023-03-28T16:03:49.344Z,3.13
2023-03-28T16:06:31.005Z,7.23
2023-03-28T16:09:13.908Z,3.23
2023-03-28T16:11:42.722Z,3.53
2023-03-28T16:14:33.327Z,3.27
2023-03-28T16:17:24.892Z,4.50
2023-03-28T16:20:11.178Z,8.93
2023-03-28T16:22:40.976Z,3.67
2023-03-28T16:25:08.734Z,4.00
2023-03-28T16:27:37.802Z,2.63
2023-03-28T16:30:07.617Z,3.17
2023-03-28T16:32:35.885Z,6.13
2023-03-28T16:35:04.981Z,4.07
2023-03-28T16:37:32.329Z,2.30
2023-03-28T16:40:01.014Z,3.23
2023-03-28T16:42:30.869Z,4.67
2023-03-28T16:44:58.873Z,3.77
2023-03-28T16:47:28.939Z,2.87
2023-03-28T16:49:57.177Z,6.00
2023-03-28T16:52:27.877Z,3.57
2023-03-28T16:54:58.432Z,9.97
2023-03-28T16:57:26.377Z,9.23
2023-03-28T16:59:54.192Z,4.07
2023-03-28T17:02:22.047Z,5.27
2023-03-28T17:04:50.922Z,5.77
2023-03-28T17:07:19.949Z,2.27
2023-03-28T17:09:50.311Z,3.33
2023-03-28T17:12:18.281Z,2.00
2023-03-28T17:14:45.961Z,3.50
2023-03-28T17:17:13.517Z,7.00
2023-03-28T17:19:41.473Z,3.93
2023-03-28T17:22:08.984Z,5.53
2023-03-28T17:24:36.362Z,3.70
2023-03-28T17:27:05.370Z,3.77
2023-03-28T17:29:32.982Z,3.30
2023-03-28T17:32:03.185Z,2.03
2023-03-28T17:34:32.406Z,2.60
2023-03-28T17:37:00.420Z,3.60
2023-03-28T17:39:28.604Z,5.23
2023-03-28T17:41:56.180Z,9.40
2023-03-28T17:44:26.119Z,4.43
2023-03-28T17:46:56.570Z,5.67
2023-03-28T17:49:24.135Z,5.10
2023-03-28T17:51:52.055Z,4.87
2023-03-28T17:54:19.573Z,11.33
2023-03-28T17:56:47.377Z,8.40
2023-03-28T17:59:14.866Z,22.87
2023-03-28T18:01:45.832Z,29.53
2023-03-28T18:04:13.521Z,36.00
2023-03-28T18:07:15.878Z,37.67
2023-03-28T18:09:44.512Z,12.00
2023-03-28T18:12:14.337Z,9.60
2023-03-28T18:14:42.010Z,6.73
2023-03-28T18:17:11.994Z,6.80
2023-03-28T18:19:39.536Z,14.27
2023-03-28T18:22:08.177Z,9.83
2023-03-28T18:24:35.591Z,6.83
2023-03-28T18:27:02.925Z,7.47
2023-03-28T18:29:31.019Z,5.23
2023-03-28T18:32:00.007Z,6.03
2023-03-28T18:34:28.723Z,4.73
2023-03-28T18:36:56.543Z,3.27
2023-03-28T18:39:24.134Z,4.93
2023-03-28T18:41:52.066Z,5.17
2023-03-28T18:44:20.643Z,3.03
2023-03-28T18:46:54.624Z,3.27
2023-03-28T18:49:22.492Z,3.47
2023-03-28T18:51:53.107Z,6.00
2023-03-28T18:54:20.588Z,4.57
2023-03-28T18:56:48.221Z,5.83
2023-03-28T18:59:15.745Z,4.83
2023-03-28T19:01:49.581Z,7.13
2023-03-28T19:04:17.221Z,7.33
2023-03-28T19:06:44.754Z,7.60
2023-03-28T19:09:16.120Z,4.37
2023-03-28T19:11:43.464Z,7.43
2023-03-28T19:14:11.282Z,6.83
2023-03-28T19:16:39.249Z,5.17
2023-03-28T19:19:06.634Z,9.60
2023-03-28T19:21:34.017Z,8.97
2023-03-28T19:24:02.186Z,6.00
2023-03-28T19:26:30.930Z,6.03
2023-03-28T19:28:58.321Z,7.57
2023-03-28T19:31:25.670Z,6.87
2023-03-28T19:33:53.222Z,7.97
2023-03-28T19:36:22.376Z,8.20
2023-03-28T19:38:50.559Z,6.90
2023-03-28T19:41:20.330Z,8.53
2023-03-28T19:43:51.022Z,9.80
2023-03-28T19:46:22.156Z,6.07
2023-03-28T19:48:52.332Z,5.33
2023-03-28T19:51:22.092Z,8.93
2023-03-28T19:53:49.504Z,5.97
2023-03-28T19:56:18.885Z,8.70
2023-03-28T19:58:46.411Z,8.73
2023-03-28T20:01:15.548Z,4.17
2023-03-28T20:03:45.121Z,5.90
2023-03-28T20:06:13.410Z,5.03
2023-03-28T20:08:41.781Z,4.17
2023-03-28T20:11:09.760Z,5.83
2023-03-28T20:13:37.109Z,4.07
2023-03-28T20:16:05.125Z,5.17
2023-03-28T20:18:34.179Z,8.17
2023-03-28T20:21:03.608Z,10.00
2023-03-28T20:23:32.539Z,5.63
2023-03-28T20:26:01.520Z,8.97
2023-03-28T20:28:31.839Z,11.97
2023-03-28T20:30:59.935Z,10.37
2023-03-28T20:33:30.275Z,12.00
2023-03-28T20:36:01.017Z,10.10
2023-03-28T20:38:33.206Z,4.47
2023-03-28T20:41:01.449Z,5.00
2023-03-28T20:43:30.186Z,3.87
2023-03-28T20:46:01.483Z,6.63
2023-03-28T20:48:36.353Z,4.93
2023-03-28T20:51:06.610Z,4.63
2023-03-28T20:53:34.787Z,5.67
2023-03-28T20:56:03.591Z,4.53
2023-03-28T20:58:31.567Z,4.00
2023-03-28T21:01:00.654Z,6.03
2023-03-28T21:03:40.058Z,5.63
2023-03-28T21:06:10.164Z,4.70
2023-03-28T21:08:37.510Z,3.47
2023-03-28T21:11:04.936Z,4.13
2023-03-28T21:13:32.420Z,4.67
2023-03-28T21:15:59.809Z,3.90
2023-03-28T21:18:27.901Z,6.37
2023-03-28T21:20:55.236Z,5.87
2023-03-28T21:23:24.554Z,8.50
2023-03-28T21:25:52.794Z,4.87
2023-03-28T21:28:20.375Z,5.57
2023-03-28T21:30:56.774Z,3.73
2023-03-28T21:33:24.584Z,3.77
2023-03-28T21:35:52.594Z,5.47
2023-03-28T21:38:20.317Z,3.00
2023-03-28T21:40:49.101Z,2.90
2023-03-28T21:43:16.592Z,3.97
2023-03-28T21:45:44.389Z,3.30
2023-03-28T21:48:12.395Z,5.30
2023-03-28T21:50:40.888Z,1.70
2023-03-28T21:53:09.262Z,5.67
2023-03-28T21:55:36.672Z,4.67
2023-03-28T21:58:05.573Z,6.97
2023-03-28T22:00:32.985Z,3.47
2023-03-28T22:03:00.704Z,2.50
2023-03-28T22:05:29.927Z,5.97
2023-03-28T22:07:57.508Z,6.37
2023-03-28T22:10:26.492Z,7.57
2023-03-28T22:12:53.943Z,6.63
2023-03-28T22:15:22.633Z,9.43
2023-03-28T22:17:50.019Z,7.93
2023-03-28T22:20:18.463Z,10.20
2023-03-28T22:22:48.483Z,9.23
2023-03-28T22:25:16.493Z,9.50
2023-03-28T22:27:44.091Z,11.03
2023-03-28T22:30:12.236Z,9.10
2023-03-28T22:32:40.989Z,4.60
2023-03-28T22:35:08.945Z,4.40
2023-03-28T22:37:36.275Z,6.20
2023-03-28T22:40:04.817Z,7.83
2023-03-28T22:42:32.789Z,3.93
2023-03-28T22:45:00.222Z,7.13
2023-03-28T22:47:30.197Z,5.70
2023-03-28T22:49:59.654Z,6.23
2023-03-28T22:52:27.035Z,4.90
2023-03-28T22:54:54.419Z,4.63
2023-03-28T22:57:22.245Z,5.47
2023-03-28T22:59:52.506Z,3.53
2023-03-28T23:02:19.945Z,4.83
2023-03-28T23:04:47.535Z,4.13
2023-03-28T23:07:16.329Z,2.67
2023-03-28T23:09:44.050Z,3.13
2023-03-28T23:12:11.391Z,5.73
2023-03-28T23:14:39.203Z,3.07
2023-03-28T23:17:06.610Z,5.27
2023-03-28T23:19:33.982Z,2.33
2023-03-28T23:22:01.831Z,4.17
2023-03-28T23:24:30.612Z,3.30
2023-03-28T23:26:58.036Z,5.10
2023-03-28T23:29:25.555Z,6.80
2023-03-28T23:31:52.940Z,4.93
2023-03-28T23:34:20.453Z,4.07
2023-03-28T23:36:50.611Z,6.57
2023-03-28T23:39:18.551Z,5.17
2023-03-28T23:41:47.225Z,4.97
2023-03-28T23:44:14.592Z,5.47
2023-03-28T23:46:42.312Z,7.23
2023-03-28T23:49:09.654Z,2.23
2023-03-28T23:51:36.994Z,2.90
2023-03-28T23:54:04.616Z,3.20
2023-03-28T23:56:31.999Z,3.97
2023-03-28T23:59:00.678Z,2.33
